Aviation Digital Data Service (ADDS)

Output produced by METARs form (0423 UTC 19 February 2019)
found at http://www.aviationweather.gov/metar/data/
 
METAR text: LELC 190400Z AUTO 35007KT 9999 NCD 10/07 Q1019
Conditions at: LELC (SAN JAVIER(MIL/C, ES) observed 0400 UTC 19 February 2019
Temperature: 10.0°C (50°F)
Dewpoint: 7.0°C (45°F) [RH = 82%]
Pressure (altimeter): 30.09 inches Hg (1019.0 mb)
Winds: from the N (350 degrees) at 8 MPH (7 knots; 3.6 m/s)
Visibility: 6 or more miles (10+ km)
Ceiling: at least 12,000 feet AGL
Clouds: sky clear below 12,000 feet AGL
Weather: no significant weather observed at this time

METAR text: LELC 190330Z AUTO 35008KT 9999 NCD 10/07 Q1020
Conditions at: LELC (SAN JAVIER(MIL/C, ES) observed 0330 UTC 19 February 2019
Temperature: 10.0°C (50°F)
Dewpoint: 7.0°C (45°F) [RH = 82%]
Pressure (altimeter): 30.12 inches Hg (1020.0 mb)
Winds: from the N (350 degrees) at 9 MPH (8 knots; 4.1 m/s)
Visibility: 6 or more miles (10+ km)
Ceiling: at least 12,000 feet AGL
Clouds: sky clear below 12,000 feet AGL
Weather: no significant weather observed at this time

METAR text: LELC 190300Z AUTO 35008KT 9999 NCD 10/08 Q1020
Conditions at: LELC (SAN JAVIER(MIL/C, ES) observed 0300 UTC 19 February 2019
Temperature: 10.0°C (50°F)
Dewpoint: 8.0°C (46°F) [RH = 87%]
Pressure (altimeter): 30.12 inches Hg (1020.0 mb)
Winds: from the N (350 degrees) at 9 MPH (8 knots; 4.1 m/s)
Visibility: 6 or more miles (10+ km)
Ceiling: at least 12,000 feet AGL
Clouds: sky clear below 12,000 feet AGL
Weather: no significant weather observed at this time

METAR text: LELC 190230Z AUTO 35007KT 9999 FEW022/// 10/08 Q1020
Conditions at: LELC (SAN JAVIER(MIL/C, ES) observed 0230 UTC 19 February 2019
Temperature: 10.0°C (50°F)
Dewpoint: 8.0°C (46°F) [RH = 87%]
Pressure (altimeter): 30.12 inches Hg (1020.0 mb)
Winds: from the N (350 degrees) at 8 MPH (7 knots; 3.6 m/s)
Visibility: 6 or more miles (10+ km)
Ceiling: at least 12,000 feet AGL
Clouds: few clouds at 2200 feet AGL
Weather: no significant weather observed at this time

METAR text: LELC 190200Z AUTO 35007KT 9999 FEW019/// SCT026/// 11/08 Q1020
Conditions at: LELC (SAN JAVIER(MIL/C, ES) observed 0200 UTC 19 February 2019
Temperature: 11.0°C (52°F)
Dewpoint: 8.0°C (46°F) [RH = 82%]
Pressure (altimeter): 30.12 inches Hg (1020.0 mb)
Winds: from the N (350 degrees) at 8 MPH (7 knots; 3.6 m/s)
Visibility: 6 or more miles (10+ km)
Ceiling: at least 12,000 feet AGL
Clouds: few clouds at 1900 feet AGL
scattered clouds at 2600 feet AGL
Weather: no significant weather observed at this time

METAR text: LELC 190130Z AUTO 34008KT 9000 SCT020/// BKN025/// 11/09 Q1020
Conditions at: LELC (SAN JAVIER(MIL/C, ES) observed 0130 UTC 19 February 2019
Temperature: 11.0°C (52°F)
Dewpoint: 9.0°C (48°F) [RH = 87%]
Pressure (altimeter): 30.12 inches Hg (1020.0 mb)
Winds: from the NNW (340 degrees) at 9 MPH (8 knots; 4.1 m/s)
Visibility: 6 miles ( 9 km)
Ceiling: 2500 feet AGL
Clouds: scattered clouds at 2000 feet AGL
broken clouds at 2500 feet AGL
Weather: no significant weather observed at this time

METAR text: LELC 190100Z AUTO 04013KT 9999 SCT019/// BKN024/// 13/10 Q1020
Conditions at: LELC (SAN JAVIER(MIL/C, ES) observed 0100 UTC 19 February 2019
Temperature: 13.0°C (55°F)
Dewpoint: 10.0°C (50°F) [RH = 82%]
Pressure (altimeter): 30.12 inches Hg (1020.0 mb)
Winds: from the NE (40 degrees) at 15 MPH (13 knots; 6.7 m/s)
Visibility: 6 or more miles (10+ km)
Ceiling: 2400 feet AGL
Clouds: scattered clouds at 1900 feet AGL
broken clouds at 2400 feet AGL
Weather: no significant weather observed at this time

METAR text: LELC 190030Z AUTO 04014KT 9000 SCT019/// 13/11 Q1020
Conditions at: LELC (SAN JAVIER(MIL/C, ES) observed 0030 UTC 19 February 2019
Temperature: 13.0°C (55°F)
Dewpoint: 11.0°C (52°F) [RH = 88%]
Pressure (altimeter): 30.12 inches Hg (1020.0 mb)
Winds: from the NE (40 degrees) at 16 MPH (14 knots; 7.2 m/s)
Visibility: 6 miles ( 9 km)
Ceiling: at least 12,000 feet AGL
Clouds: scattered clouds at 1900 feet AGL
Weather: no significant weather observed at this time

METAR text: LELC 190000Z AUTO 04013KT 9999 FEW017/// 13/11 Q1020
Conditions at: LELC (SAN JAVIER(MIL/C, ES) observed 0000 UTC 19 February 2019
Temperature: 13.0°C (55°F)
Dewpoint: 11.0°C (52°F) [RH = 88%]
Pressure (altimeter): 30.12 inches Hg (1020.0 mb)
Winds: from the NE (40 degrees) at 15 MPH (13 knots; 6.7 m/s)
Visibility: 6 or more miles (10+ km)
Ceiling: at least 12,000 feet AGL
Clouds: few clouds at 1700 feet AGL
Weather: no significant weather observed at this time

METAR text: LELC 182330Z AUTO 04013KT 9999 FEW015/// SCT022/// 13/11 Q1020
Conditions at: LELC (SAN JAVIER(MIL/C, ES) observed 2330 UTC 18 February 2019
Temperature: 13.0°C (55°F)
Dewpoint: 11.0°C (52°F) [RH = 88%]
Pressure (altimeter): 30.12 inches Hg (1020.0 mb)
Winds: from the NE (40 degrees) at 15 MPH (13 knots; 6.7 m/s)
Visibility: 6 or more miles (10+ km)
Ceiling: at least 12,000 feet AGL
Clouds: few clouds at 1500 feet AGL
scattered clouds at 2200 feet AGL
Weather: no significant weather observed at this time

METAR text: LELC 182300Z AUTO 03013KT 9999 FEW015/// BKN021/// 14/11 Q1020
Conditions at: LELC (SAN JAVIER(MIL/C, ES) observed 2300 UTC 18 February 2019
Temperature: 14.0°C (57°F)
Dewpoint: 11.0°C (52°F) [RH = 82%]
Pressure (altimeter): 30.12 inches Hg (1020.0 mb)
Winds: from the NNE (30 degrees) at 15 MPH (13 knots; 6.7 m/s)
Visibility: 6 or more miles (10+ km)
Ceiling: 2100 feet AGL
Clouds: few clouds at 1500 feet AGL
broken clouds at 2100 feet AGL
Weather: no significant weather observed at this time

METAR text: LELC 182230Z AUTO 04011KT 010V070 9999 SCT015/// BKN020/// BKN026/// 14/11 Q1020
Conditions at: LELC (SAN JAVIER(MIL/C, ES) observed 2230 UTC 18 February 2019
Temperature: 14.0°C (57°F)
Dewpoint: 11.0°C (52°F) [RH = 82%]
Pressure (altimeter): 30.12 inches Hg (1020.0 mb)
Winds: from the NE (40 degrees) at 13 MPH (11 knots; 5.7 m/s)
Visibility: 6 or more miles (10+ km)
Ceiling: 2000 feet AGL
Clouds: scattered clouds at 1500 feet AGL
broken clouds at 2000 feet AGL
broken clouds at 2600 feet AGL
Weather: no significant weather observed at this time

METAR text: LELC 182200Z AUTO 05009KT 9999 BKN016/// BKN022/// 14/11 Q1020
Conditions at: LELC (SAN JAVIER(MIL/C, ES) observed 2200 UTC 18 February 2019
Temperature: 14.0°C (57°F)
Dewpoint: 11.0°C (52°F) [RH = 82%]
Pressure (altimeter): 30.12 inches Hg (1020.0 mb)
Winds: from the NE (50 degrees) at 10 MPH (9 knots; 4.6 m/s)
Visibility: 6 or more miles (10+ km)
Ceiling: 1600 feet AGL
Clouds: broken clouds at 1600 feet AGL
broken clouds at 2200 feet AGL
Weather: no significant weather observed at this time

METAR text: LELC 182130Z AUTO 05009KT 020V080 9999 BKN016/// 14/11 Q1020
Conditions at: LELC (SAN JAVIER(MIL/C, ES) observed 2130 UTC 18 February 2019
Temperature: 14.0°C (57°F)
Dewpoint: 11.0°C (52°F) [RH = 82%]
Pressure (altimeter): 30.12 inches Hg (1020.0 mb)
Winds: from the NE (50 degrees) at 10 MPH (9 knots; 4.6 m/s)
Visibility: 6 or more miles (10+ km)
Ceiling: 1600 feet AGL
Clouds: broken clouds at 1600 feet AGL
Weather: no significant weather observed at this time

METAR text: LELC 182100Z AUTO 04011KT 9000 BKN016/// 14/11 Q1020
Conditions at: LELC (SAN JAVIER(MIL/C, ES) observed 2100 UTC 18 February 2019
Temperature: 14.0°C (57°F)
Dewpoint: 11.0°C (52°F) [RH = 82%]
Pressure (altimeter): 30.12 inches Hg (1020.0 mb)
Winds: from the NE (40 degrees) at 13 MPH (11 knots; 5.7 m/s)
Visibility: 6 miles ( 9 km)
Ceiling: 1600 feet AGL
Clouds: broken clouds at 1600 feet AGL
Weather: no significant weather observed at this time

METAR text: LELC 182030Z AUTO 05009KT 020V080 9000 BKN015/// 14/11 Q1020
Conditions at: LELC (SAN JAVIER(MIL/C, ES) observed 2030 UTC 18 February 2019
Temperature: 14.0°C (57°F)
Dewpoint: 11.0°C (52°F) [RH = 82%]
Pressure (altimeter): 30.12 inches Hg (1020.0 mb)
Winds: from the NE (50 degrees) at 10 MPH (9 knots; 4.6 m/s)
Visibility: 6 miles ( 9 km)
Ceiling: 1500 feet AGL
Clouds: broken clouds at 1500 feet AGL
Weather: no significant weather observed at this time

METAR text: LELC 182000Z AUTO 04009KT 9000 BKN016/// 14/11 Q1020
Conditions at: LELC (SAN JAVIER(MIL/C, ES) observed 2000 UTC 18 February 2019
Temperature: 14.0°C (57°F)
Dewpoint: 11.0°C (52°F) [RH = 82%]
Pressure (altimeter): 30.12 inches Hg (1020.0 mb)
Winds: from the NE (40 degrees) at 10 MPH (9 knots; 4.6 m/s)
Visibility: 6 miles ( 9 km)
Ceiling: 1600 feet AGL
Clouds: broken clouds at 1600 feet AGL
Weather: no significant weather observed at this time

METAR text: LELC 181930Z AUTO 04010KT 9999 BKN016/// 14/11 Q1020
Conditions at: LELC (SAN JAVIER(MIL/C, ES) observed 1930 UTC 18 February 2019
Temperature: 14.0°C (57°F)
Dewpoint: 11.0°C (52°F) [RH = 82%]
Pressure (altimeter): 30.12 inches Hg (1020.0 mb)
Winds: from the NE (40 degrees) at 12 MPH (10 knots; 5.1 m/s)
Visibility: 6 or more miles (10+ km)
Ceiling: 1600 feet AGL
Clouds: broken clouds at 1600 feet AGL
Weather: no significant weather observed at this time

METAR text: LELC 181900Z AUTO 04009KT 020V080 9999 BKN017/// 14/11 Q1019
Conditions at: LELC (SAN JAVIER(MIL/C, ES) observed 1900 UTC 18 February 2019
Temperature: 14.0°C (57°F)
Dewpoint: 11.0°C (52°F) [RH = 82%]
Pressure (altimeter): 30.09 inches Hg (1019.0 mb)
Winds: from the NE (40 degrees) at 10 MPH (9 knots; 4.6 m/s)
Visibility: 6 or more miles (10+ km)
Ceiling: 1700 feet AGL
Clouds: broken clouds at 1700 feet AGL
Weather: no significant weather observed at this time

METAR text: LELC 181830Z AUTO 04009KT 9999 BKN017/// 14/10 Q1019
Conditions at: LELC (SAN JAVIER(MIL/C, ES) observed 1830 UTC 18 February 2019
Temperature: 14.0°C (57°F)
Dewpoint: 10.0°C (50°F) [RH = 77%]
Pressure (altimeter): 30.09 inches Hg (1019.0 mb)
Winds: from the NE (40 degrees) at 10 MPH (9 knots; 4.6 m/s)
Visibility: 6 or more miles (10+ km)
Ceiling: 1700 feet AGL
Clouds: broken clouds at 1700 feet AGL
Weather: no significant weather observed at this time

METAR text: LELC 181800Z 05009KT 020V080 9999 BKN017 14/11 Q1019 NOSIG
Conditions at: LELC (SAN JAVIER(MIL/C, ES) observed 1800 UTC 18 February 2019
Temperature: 14.0°C (57°F)
Dewpoint: 11.0°C (52°F) [RH = 82%]
Pressure (altimeter): 30.09 inches Hg (1019.0 mb)
Winds: from the NE (50 degrees) at 10 MPH (9 knots; 4.6 m/s)
Visibility: 6 or more miles (10+ km)
Ceiling: 1700 feet AGL
Clouds: broken clouds at 1700 feet AGL
Weather: no significant weather observed at this time

METAR text: LELC 181730Z 05009KT 020V080 9999 BKN017 14/10 Q1019 NOSIG
Conditions at: LELC (SAN JAVIER(MIL/C, ES) observed 1730 UTC 18 February 2019
Temperature: 14.0°C (57°F)
Dewpoint: 10.0°C (50°F) [RH = 77%]
Pressure (altimeter): 30.09 inches Hg (1019.0 mb)
Winds: from the NE (50 degrees) at 10 MPH (9 knots; 4.6 m/s)
Visibility: 6 or more miles (10+ km)
Ceiling: 1700 feet AGL
Clouds: broken clouds at 1700 feet AGL
Weather: no significant weather observed at this time

METAR text: LELC 181700Z 05011KT 020V080 9999 SCT017 BKN022 14/11 Q1019 NOSIG
Conditions at: LELC (SAN JAVIER(MIL/C, ES) observed 1700 UTC 18 February 2019
Temperature: 14.0°C (57°F)
Dewpoint: 11.0°C (52°F) [RH = 82%]
Pressure (altimeter): 30.09 inches Hg (1019.0 mb)
Winds: from the NE (50 degrees) at 13 MPH (11 knots; 5.7 m/s)
Visibility: 6 or more miles (10+ km)
Ceiling: 2200 feet AGL
Clouds: scattered clouds at 1700 feet AGL
broken clouds at 2200 feet AGL
Weather: no significant weather observed at this time

METAR text: LELC 181630Z 05010KT 030V090 9999 BKN016 BKN021 15/11 Q1019 NOSIG
Conditions at: LELC (SAN JAVIER(MIL/C, ES) observed 1630 UTC 18 February 2019
Temperature: 15.0°C (59°F)
Dewpoint: 11.0°C (52°F) [RH = 77%]
Pressure (altimeter): 30.09 inches Hg (1019.0 mb)
Winds: from the NE (50 degrees) at 12 MPH (10 knots; 5.1 m/s)
Visibility: 6 or more miles (10+ km)
Ceiling: 1600 feet AGL
Clouds: broken clouds at 1600 feet AGL
broken clouds at 2100 feet AGL
Weather: no significant weather observed at this time

METAR text: LELC 181600Z 05010KT 030V090 9999 BKN016 BKN021 15/11 Q1019 NOSIG
Conditions at: LELC (SAN JAVIER(MIL/C, ES) observed 1600 UTC 18 February 2019
Temperature: 15.0°C (59°F)
Dewpoint: 11.0°C (52°F) [RH = 77%]
Pressure (altimeter): 30.09 inches Hg (1019.0 mb)
Winds: from the NE (50 degrees) at 12 MPH (10 knots; 5.1 m/s)
Visibility: 6 or more miles (10+ km)
Ceiling: 1600 feet AGL
Clouds: broken clouds at 1600 feet AGL
broken clouds at 2100 feet AGL
Weather: no significant weather observed at this time

METAR text: LELC 181530Z 06012KT 030V100 9999 FEW020 16/11 Q1019 NOSIG
Conditions at: LELC (SAN JAVIER(MIL/C, ES) observed 1530 UTC 18 February 2019
Temperature: 16.0°C (61°F)
Dewpoint: 11.0°C (52°F) [RH = 72%]
Pressure (altimeter): 30.09 inches Hg (1019.0 mb)
Winds: from the ENE (60 degrees) at 14 MPH (12 knots; 6.2 m/s)
Visibility: 6 or more miles (10+ km)
Ceiling: at least 12,000 feet AGL
Clouds: few clouds at 2000 feet AGL
Weather: no significant weather observed at this time

METAR text: LELC 181500Z 06012KT 020V100 9999 FEW013 16/12 Q1019 NOSIG
Conditions at: LELC (SAN JAVIER(MIL/C, ES) observed 1500 UTC 18 February 2019
Temperature: 16.0°C (61°F)
Dewpoint: 12.0°C (54°F) [RH = 77%]
Pressure (altimeter): 30.09 inches Hg (1019.0 mb)
Winds: from the ENE (60 degrees) at 14 MPH (12 knots; 6.2 m/s)
Visibility: 6 or more miles (10+ km)
Ceiling: at least 12,000 feet AGL
Clouds: few clouds at 1300 feet AGL
Weather: no significant weather observed at this time

METAR text: LELC 181430Z 06012KT 030V100 9999 FEW014 16/12 Q1019 NOSIG
Conditions at: LELC (SAN JAVIER(MIL/C, ES) observed 1430 UTC 18 February 2019
Temperature: 16.0°C (61°F)
Dewpoint: 12.0°C (54°F) [RH = 77%]
Pressure (altimeter): 30.09 inches Hg (1019.0 mb)
Winds: from the ENE (60 degrees) at 14 MPH (12 knots; 6.2 m/s)
Visibility: 6 or more miles (10+ km)
Ceiling: at least 12,000 feet AGL
Clouds: few clouds at 1400 feet AGL
Weather: no significant weather observed at this time

METAR text: LELC 181400Z 07012KT 030V100 9999 FEW020 16/12 Q1019 NOSIG
Conditions at: LELC (SAN JAVIER(MIL/C, ES) observed 1400 UTC 18 February 2019
Temperature: 16.0°C (61°F)
Dewpoint: 12.0°C (54°F) [RH = 77%]
Pressure (altimeter): 30.09 inches Hg (1019.0 mb)
Winds: from the ENE (70 degrees) at 14 MPH (12 knots; 6.2 m/s)
Visibility: 6 or more miles (10+ km)
Ceiling: at least 12,000 feet AGL
Clouds: few clouds at 2000 feet AGL
Weather: no significant weather observed at this time

METAR text: LELC 181351Z 07011KT 030V100 9999 FEW020 16/12 Q1020 NOSIG
Conditions at: LELC (SAN JAVIER(MIL/C, ES) observed 1351 UTC 18 February 2019
Temperature: 16.0°C (61°F)
Dewpoint: 12.0°C (54°F) [RH = 77%]
Pressure (altimeter): 30.12 inches Hg (1020.0 mb)
Winds: from the ENE (70 degrees) at 13 MPH (11 knots; 5.7 m/s)
Visibility: 6 or more miles (10+ km)
Ceiling: at least 12,000 feet AGL
Clouds: few clouds at 2000 feet AGL
Weather: no significant weather observed at this time

METAR text: LELC 181330Z 06012KT 040V100 9999 BKN012 BKN018 16/12 Q1020 NOSIG
Conditions at: LELC (SAN JAVIER(MIL/C, ES) observed 1330 UTC 18 February 2019
Temperature: 16.0°C (61°F)
Dewpoint: 12.0°C (54°F) [RH = 77%]
Pressure (altimeter): 30.12 inches Hg (1020.0 mb)
Winds: from the ENE (60 degrees) at 14 MPH (12 knots; 6.2 m/s)
Visibility: 6 or more miles (10+ km)
Ceiling: 1200 feet AGL
Clouds: broken clouds at 1200 feet AGL
broken clouds at 1800 feet AGL
Weather: no significant weather observed at this time

METAR text: LELC 181300Z 06011KT 030V100 9999 BKN013 BKN019 16/12 Q1020 NOSIG
Conditions at: LELC (SAN JAVIER(MIL/C, ES) observed 1300 UTC 18 February 2019
Temperature: 16.0°C (61°F)
Dewpoint: 12.0°C (54°F) [RH = 77%]
Pressure (altimeter): 30.12 inches Hg (1020.0 mb)
Winds: from the ENE (60 degrees) at 13 MPH (11 knots; 5.7 m/s)
Visibility: 6 or more miles (10+ km)
Ceiling: 1300 feet AGL
Clouds: broken clouds at 1300 feet AGL
broken clouds at 1900 feet AGL
Weather: no significant weather observed at this time

METAR text: LELC 181230Z 06012KT 020V080 9999 BKN014 15/11 Q1020 NOSIG
Conditions at: LELC (SAN JAVIER(MIL/C, ES) observed 1230 UTC 18 February 2019
Temperature: 15.0°C (59°F)
Dewpoint: 11.0°C (52°F) [RH = 77%]
Pressure (altimeter): 30.12 inches Hg (1020.0 mb)
Winds: from the ENE (60 degrees) at 14 MPH (12 knots; 6.2 m/s)
Visibility: 6 or more miles (10+ km)
Ceiling: 1400 feet AGL
Clouds: broken clouds at 1400 feet AGL
Weather: no significant weather observed at this time

METAR text: LELC 181200Z 06012KT 030V100 9999 BKN013 16/11 Q1021 NOSIG
Conditions at: LELC (SAN JAVIER(MIL/C, ES) observed 1200 UTC 18 February 2019
Temperature: 16.0°C (61°F)
Dewpoint: 11.0°C (52°F) [RH = 72%]
Pressure (altimeter): 30.15 inches Hg (1021.0 mb)
Winds: from the ENE (60 degrees) at 14 MPH (12 knots; 6.2 m/s)
Visibility: 6 or more miles (10+ km)
Ceiling: 1300 feet AGL
Clouds: broken clouds at 1300 feet AGL
Weather: no significant weather observed at this time

METAR text: LELC 181148Z 06011KT 020V080 9999 BKN014 16/12 Q1021 NOSIG
Conditions at: LELC (SAN JAVIER(MIL/C, ES) observed 1148 UTC 18 February 2019
Temperature: 16.0°C (61°F)
Dewpoint: 12.0°C (54°F) [RH = 77%]
Pressure (altimeter): 30.15 inches Hg (1021.0 mb)
Winds: from the ENE (60 degrees) at 13 MPH (11 knots; 5.7 m/s)
Visibility: 6 or more miles (10+ km)
Ceiling: 1400 feet AGL
Clouds: broken clouds at 1400 feet AGL
Weather: no significant weather observed at this time

METAR text: LELC 181130Z 06012KT 020V090 9999 BKN016 16/11 Q1021 NOSIG
Conditions at: LELC (SAN JAVIER(MIL/C, ES) observed 1130 UTC 18 February 2019
Temperature: 16.0°C (61°F)
Dewpoint: 11.0°C (52°F) [RH = 72%]
Pressure (altimeter): 30.15 inches Hg (1021.0 mb)
Winds: from the ENE (60 degrees) at 14 MPH (12 knots; 6.2 m/s)
Visibility: 6 or more miles (10+ km)
Ceiling: 1600 feet AGL
Clouds: broken clouds at 1600 feet AGL
Weather: no significant weather observed at this time

METAR text: LELC 181100Z 03011KT 9999 BKN016 BKN022 14/11 Q1021 NOSIG
Conditions at: LELC (SAN JAVIER(MIL/C, ES) observed 1100 UTC 18 February 2019
Temperature: 14.0°C (57°F)
Dewpoint: 11.0°C (52°F) [RH = 82%]
Pressure (altimeter): 30.15 inches Hg (1021.0 mb)
Winds: from the NNE (30 degrees) at 13 MPH (11 knots; 5.7 m/s)
Visibility: 6 or more miles (10+ km)
Ceiling: 1600 feet AGL
Clouds: broken clouds at 1600 feet AGL
broken clouds at 2200 feet AGL
Weather: no significant weather observed at this time

METAR text: LELC 181030Z 03013KT 9999 BKN020 BKN026 14/10 Q1021 NOSIG
Conditions at: LELC (SAN JAVIER(MIL/C, ES) observed 1030 UTC 18 February 2019
Temperature: 14.0°C (57°F)
Dewpoint: 10.0°C (50°F) [RH = 77%]
Pressure (altimeter): 30.15 inches Hg (1021.0 mb)
Winds: from the NNE (30 degrees) at 15 MPH (13 knots; 6.7 m/s)
Visibility: 6 or more miles (10+ km)
Ceiling: 2000 feet AGL
Clouds: broken clouds at 2000 feet AGL
broken clouds at 2600 feet AGL
Weather: no significant weather observed at this time

METAR text: LELC 181000Z 03012KT 9999 BKN023 OVC028 14/10 Q1021 NOSIG
Conditions at: LELC (SAN JAVIER(MIL/C, ES) observed 1000 UTC 18 February 2019
Temperature: 14.0°C (57°F)
Dewpoint: 10.0°C (50°F) [RH = 77%]
Pressure (altimeter): 30.15 inches Hg (1021.0 mb)
Winds: from the NNE (30 degrees) at 14 MPH (12 knots; 6.2 m/s)
Visibility: 6 or more miles (10+ km)
Ceiling: 2300 feet AGL
Clouds: broken clouds at 2300 feet AGL
overcast cloud deck at 2800 feet AGL
Weather: no significant weather observed at this time

METAR text: LELC 180930Z 01007KT 340V040 9999 BKN020 BKN025 14/10 Q1022 NOSIG
Conditions at: LELC (SAN JAVIER(MIL/C, ES) observed 0930 UTC 18 February 2019
Temperature: 14.0°C (57°F)
Dewpoint: 10.0°C (50°F) [RH = 77%]
Pressure (altimeter): 30.18 inches Hg (1022.0 mb)
Winds: from the N (10 degrees) at 8 MPH (7 knots; 3.6 m/s)
Visibility: 6 or more miles (10+ km)
Ceiling: 2000 feet AGL
Clouds: broken clouds at 2000 feet AGL
broken clouds at 2500 feet AGL
Weather: no significant weather observed at this time

METAR text: LELC 180900Z 36008KT 9999 BKN017 BKN022 13/10 Q1021 NOSIG
Conditions at: LELC (SAN JAVIER(MIL/C, ES) observed 0900 UTC 18 February 2019
Temperature: 13.0°C (55°F)
Dewpoint: 10.0°C (50°F) [RH = 82%]
Pressure (altimeter): 30.15 inches Hg (1021.0 mb)
Winds: from the N (360 degrees) at 9 MPH (8 knots; 4.1 m/s)
Visibility: 6 or more miles (10+ km)
Ceiling: 1700 feet AGL
Clouds: broken clouds at 1700 feet AGL
broken clouds at 2200 feet AGL
Weather: no significant weather observed at this time

METAR text: LELC 180830Z 35008KT 320V020 9999 BKN018 BKN025 12/10 Q1021 NOSIG
Conditions at: LELC (SAN JAVIER(MIL/C, ES) observed 0830 UTC 18 February 2019
Temperature: 12.0°C (54°F)
Dewpoint: 10.0°C (50°F) [RH = 88%]
Pressure (altimeter): 30.15 inches Hg (1021.0 mb)
Winds: from the N (350 degrees) at 9 MPH (8 knots; 4.1 m/s)
Visibility: 6 or more miles (10+ km)
Ceiling: 1800 feet AGL
Clouds: broken clouds at 1800 feet AGL
broken clouds at 2500 feet AGL
Weather: no significant weather observed at this time

METAR text: LELC 180800Z 36009KT 9000 BKN019 BKN026 11/09 Q1021 NOSIG
Conditions at: LELC (SAN JAVIER(MIL/C, ES) observed 0800 UTC 18 February 2019
Temperature: 11.0°C (52°F)
Dewpoint: 9.0°C (48°F) [RH = 87%]
Pressure (altimeter): 30.15 inches Hg (1021.0 mb)
Winds: from the N (360 degrees) at 10 MPH (9 knots; 4.6 m/s)
Visibility: 6 miles ( 9 km)
Ceiling: 1900 feet AGL
Clouds: broken clouds at 1900 feet AGL
broken clouds at 2600 feet AGL
Weather: no significant weather observed at this time

METAR text: LELC 180730Z 36008KT 9000 BKN019 BKN025 10/09 Q1021 NOSIG
Conditions at: LELC (SAN JAVIER(MIL/C, ES) observed 0730 UTC 18 February 2019
Temperature: 10.0°C (50°F)
Dewpoint: 9.0°C (48°F) [RH = 93%]
Pressure (altimeter): 30.15 inches Hg (1021.0 mb)
Winds: from the N (360 degrees) at 9 MPH (8 knots; 4.1 m/s)
Visibility: 6 miles ( 9 km)
Ceiling: 1900 feet AGL
Clouds: broken clouds at 1900 feet AGL
broken clouds at 2500 feet AGL
Weather: no significant weather observed at this time

METAR text: LELC 180700Z 35008KT 9000 SCT018 BKN023 10/08 Q1021 NOSIG
Conditions at: LELC (SAN JAVIER(MIL/C, ES) observed 0700 UTC 18 February 2019
Temperature: 10.0°C (50°F)
Dewpoint: 8.0°C (46°F) [RH = 87%]
Pressure (altimeter): 30.15 inches Hg (1021.0 mb)
Winds: from the N (350 degrees) at 9 MPH (8 knots; 4.1 m/s)
Visibility: 6 miles ( 9 km)
Ceiling: 2300 feet AGL
Clouds: scattered clouds at 1800 feet AGL
broken clouds at 2300 feet AGL
Weather: no significant weather observed at this time

METAR text: LELC 180630Z 36008KT 9999 SCT016 10/08 Q1021 NOSIG
Conditions at: LELC (SAN JAVIER(MIL/C, ES) observed 0630 UTC 18 February 2019
Temperature: 10.0°C (50°F)
Dewpoint: 8.0°C (46°F) [RH = 87%]
Pressure (altimeter): 30.15 inches Hg (1021.0 mb)
Winds: from the N (360 degrees) at 9 MPH (8 knots; 4.1 m/s)
Visibility: 6 or more miles (10+ km)
Ceiling: at least 12,000 feet AGL
Clouds: scattered clouds at 1600 feet AGL
Weather: no significant weather observed at this time

METAR text: LELC 180600Z 01007KT 9999 FEW015 09/08 Q1021 NOSIG
Conditions at: LELC (SAN JAVIER(MIL/C, ES) observed 0600 UTC 18 February 2019
Temperature: 9.0°C (48°F)
Dewpoint: 8.0°C (46°F) [RH = 93%]
Pressure (altimeter): 30.15 inches Hg (1021.0 mb)
Winds: from the N (10 degrees) at 8 MPH (7 knots; 3.6 m/s)
Visibility: 6 or more miles (10+ km)
Ceiling: at least 12,000 feet AGL
Clouds: few clouds at 1500 feet AGL
Weather: no significant weather observed at this time

METAR text: LELC 180530Z AUTO 36007KT 9000 NCD 09/08 Q1021
Conditions at: LELC (SAN JAVIER(MIL/C, ES) observed 0530 UTC 18 February 2019
Temperature: 9.0°C (48°F)
Dewpoint: 8.0°C (46°F) [RH = 93%]
Pressure (altimeter): 30.15 inches Hg (1021.0 mb)
Winds: from the N (360 degrees) at 8 MPH (7 knots; 3.6 m/s)
Visibility: 6 miles ( 9 km)
Ceiling: at least 12,000 feet AGL
Clouds: sky clear below 12,000 feet AGL
Weather: no significant weather observed at this time

METAR text: LELC 180500Z AUTO 01007KT 9999 NCD 10/08 Q1021
Conditions at: LELC (SAN JAVIER(MIL/C, ES) observed 0500 UTC 18 February 2019
Temperature: 10.0°C (50°F)
Dewpoint: 8.0°C (46°F) [RH = 87%]
Pressure (altimeter): 30.15 inches Hg (1021.0 mb)
Winds: from the N (10 degrees) at 8 MPH (7 knots; 3.6 m/s)
Visibility: 6 or more miles (10+ km)
Ceiling: at least 12,000 feet AGL
Clouds: sky clear below 12,000 feet AGL
Weather: no significant weather observed at this time

METAR text: LELC 180430Z AUTO 01008KT 9999 NCD 10/08 Q1021
Conditions at: LELC (SAN JAVIER(MIL/C, ES) observed 0430 UTC 18 February 2019
Temperature: 10.0°C (50°F)
Dewpoint: 8.0°C (46°F) [RH = 87%]
Pressure (altimeter): 30.15 inches Hg (1021.0 mb)
Winds: from the N (10 degrees) at 9 MPH (8 knots; 4.1 m/s)
Visibility: 6 or more miles (10+ km)
Ceiling: at least 12,000 feet AGL
Clouds: sky clear below 12,000 feet AGL
Weather: no significant weather observed at this time

METAR text: LELC 180400Z AUTO 35007KT 9000 NCD 10/09 Q1021
Conditions at: LELC (SAN JAVIER(MIL/C, ES) observed 0400 UTC 18 February 2019
Temperature: 10.0°C (50°F)
Dewpoint: 9.0°C (48°F) [RH = 93%]
Pressure (altimeter): 30.15 inches Hg (1021.0 mb)
Winds: from the N (350 degrees) at 8 MPH (7 knots; 3.6 m/s)
Visibility: 6 miles ( 9 km)
Ceiling: at least 12,000 feet AGL
Clouds: sky clear below 12,000 feet AGL
Weather: no significant weather observed at this time

METAR text: LELC 180330Z AUTO 35007KT 8000 NCD 10/09 Q1021
Conditions at: LELC (SAN JAVIER(MIL/C, ES) observed 0330 UTC 18 February 2019
Temperature: 10.0°C (50°F)
Dewpoint: 9.0°C (48°F) [RH = 93%]
Pressure (altimeter): 30.15 inches Hg (1021.0 mb)
Winds: from the N (350 degrees) at 8 MPH (7 knots; 3.6 m/s)
Visibility: 5 miles ( 8 km)
Ceiling: at least 12,000 feet AGL
Clouds: sky clear below 12,000 feet AGL
Weather: no significant weather observed at this time

METAR text: LELC 180300Z AUTO 36007KT 9999 NCD 10/09 Q1022
Conditions at: LELC (SAN JAVIER(MIL/C, ES) observed 0300 UTC 18 February 2019
Temperature: 10.0°C (50°F)
Dewpoint: 9.0°C (48°F) [RH = 93%]
Pressure (altimeter): 30.18 inches Hg (1022.0 mb)
Winds: from the N (360 degrees) at 8 MPH (7 knots; 3.6 m/s)
Visibility: 6 or more miles (10+ km)
Ceiling: at least 12,000 feet AGL
Clouds: sky clear below 12,000 feet AGL
Weather: no significant weather observed at this time

METAR text: LELC 180230Z AUTO 36007KT 9000 NCD 10/09 Q1022
Conditions at: LELC (SAN JAVIER(MIL/C, ES) observed 0230 UTC 18 February 2019
Temperature: 10.0°C (50°F)
Dewpoint: 9.0°C (48°F) [RH = 93%]
Pressure (altimeter): 30.18 inches Hg (1022.0 mb)
Winds: from the N (360 degrees) at 8 MPH (7 knots; 3.6 m/s)
Visibility: 6 miles ( 9 km)
Ceiling: at least 12,000 feet AGL
Clouds: sky clear below 12,000 feet AGL
Weather: no significant weather observed at this time

METAR text: LELC 180200Z AUTO 35008KT 9999 FEW016/// 10/09 Q1022
Conditions at: LELC (SAN JAVIER(MIL/C, ES) observed 0200 UTC 18 February 2019
Temperature: 10.0°C (50°F)
Dewpoint: 9.0°C (48°F) [RH = 93%]
Pressure (altimeter): 30.18 inches Hg (1022.0 mb)
Winds: from the N (350 degrees) at 9 MPH (8 knots; 4.1 m/s)
Visibility: 6 or more miles (10+ km)
Ceiling: at least 12,000 feet AGL
Clouds: few clouds at 1600 feet AGL
Weather: no significant weather observed at this time

METAR text: LELC 180130Z AUTO 34006KT 9000 FEW016/// 10/09 Q1022
Conditions at: LELC (SAN JAVIER(MIL/C, ES) observed 0130 UTC 18 February 2019
Temperature: 10.0°C (50°F)
Dewpoint: 9.0°C (48°F) [RH = 93%]
Pressure (altimeter): 30.18 inches Hg (1022.0 mb)
Winds: from the NNW (340 degrees) at 7 MPH (6 knots; 3.1 m/s)
Visibility: 6 miles ( 9 km)
Ceiling: at least 12,000 feet AGL
Clouds: few clouds at 1600 feet AGL
Weather: no significant weather observed at this time

METAR text: LELC 180100Z AUTO 34007KT 9000 BKN016/// 11/10 Q1023
Conditions at: LELC (SAN JAVIER(MIL/C, ES) observed 0100 UTC 18 February 2019
Temperature: 11.0°C (52°F)
Dewpoint: 10.0°C (50°F) [RH = 94%]
Pressure (altimeter): 30.21 inches Hg (1023.0 mb)
Winds: from the NNW (340 degrees) at 8 MPH (7 knots; 3.6 m/s)
Visibility: 6 miles ( 9 km)
Ceiling: 1600 feet AGL
Clouds: broken clouds at 1600 feet AGL
Weather: no significant weather observed at this time

METAR text: LELC 180030Z AUTO 35007KT 9000 BKN015/// BKN021/// 11/10 Q1023
Conditions at: LELC (SAN JAVIER(MIL/C, ES) observed 0030 UTC 18 February 2019
Temperature: 11.0°C (52°F)
Dewpoint: 10.0°C (50°F) [RH = 94%]
Pressure (altimeter): 30.21 inches Hg (1023.0 mb)
Winds: from the N (350 degrees) at 8 MPH (7 knots; 3.6 m/s)
Visibility: 6 miles ( 9 km)
Ceiling: 1500 feet AGL
Clouds: broken clouds at 1500 feet AGL
broken clouds at 2100 feet AGL
Weather: no significant weather observed at this time

METAR text: LELC 180000Z AUTO 35006KT 9999 BKN015/// 11/10 Q1023
Conditions at: LELC (SAN JAVIER(MIL/C, ES) observed 0000 UTC 18 February 2019
Temperature: 11.0°C (52°F)
Dewpoint: 10.0°C (50°F) [RH = 94%]
Pressure (altimeter): 30.21 inches Hg (1023.0 mb)
Winds: from the N (350 degrees) at 7 MPH (6 knots; 3.1 m/s)
Visibility: 6 or more miles (10+ km)
Ceiling: 1500 feet AGL
Clouds: broken clouds at 1500 feet AGL
Weather: no significant weather observed at this time

METAR text: LELC 172330Z AUTO 35005KT 9000 BKN014/// 12/10 Q1023
Conditions at: LELC (SAN JAVIER(MIL/C, ES) observed 2330 UTC 17 February 2019
Temperature: 12.0°C (54°F)
Dewpoint: 10.0°C (50°F) [RH = 88%]
Pressure (altimeter): 30.21 inches Hg (1023.0 mb)
Winds: from the N (350 degrees) at 6 MPH (5 knots; 2.6 m/s)
Visibility: 6 miles ( 9 km)
Ceiling: 1400 feet AGL
Clouds: broken clouds at 1400 feet AGL
Weather: no significant weather observed at this time

METAR text: LELC 172300Z AUTO 04007KT 9999 FEW014/// 13/11 Q1023
Conditions at: LELC (SAN JAVIER(MIL/C, ES) observed 2300 UTC 17 February 2019
Temperature: 13.0°C (55°F)
Dewpoint: 11.0°C (52°F) [RH = 88%]
Pressure (altimeter): 30.21 inches Hg (1023.0 mb)
Winds: from the NE (40 degrees) at 8 MPH (7 knots; 3.6 m/s)
Visibility: 6 or more miles (10+ km)
Ceiling: at least 12,000 feet AGL
Clouds: few clouds at 1400 feet AGL
Weather: no significant weather observed at this time

METAR text: LELC 172230Z AUTO 04007KT 9999 FEW014/// 13/11 Q1023
Conditions at: LELC (SAN JAVIER(MIL/C, ES) observed 2230 UTC 17 February 2019
Temperature: 13.0°C (55°F)
Dewpoint: 11.0°C (52°F) [RH = 88%]
Pressure (altimeter): 30.21 inches Hg (1023.0 mb)
Winds: from the NE (40 degrees) at 8 MPH (7 knots; 3.6 m/s)
Visibility: 6 or more miles (10+ km)
Ceiling: at least 12,000 feet AGL
Clouds: few clouds at 1400 feet AGL
Weather: no significant weather observed at this time

METAR text: LELC 172200Z AUTO 36004KT 9000 BKN014/// 12/10 Q1023
Conditions at: LELC (SAN JAVIER(MIL/C, ES) observed 2200 UTC 17 February 2019
Temperature: 12.0°C (54°F)
Dewpoint: 10.0°C (50°F) [RH = 88%]
Pressure (altimeter): 30.21 inches Hg (1023.0 mb)
Winds: from the N (360 degrees) at 5 MPH (4 knots; 2.1 m/s)
Visibility: 6 miles ( 9 km)
Ceiling: 1400 feet AGL
Clouds: broken clouds at 1400 feet AGL
Weather: no significant weather observed at this time

METAR text: LELC 172130Z AUTO 04006KT 9999 BKN013/// 13/11 Q1023
Conditions at: LELC (SAN JAVIER(MIL/C, ES) observed 2130 UTC 17 February 2019
Temperature: 13.0°C (55°F)
Dewpoint: 11.0°C (52°F) [RH = 88%]
Pressure (altimeter): 30.21 inches Hg (1023.0 mb)
Winds: from the NE (40 degrees) at 7 MPH (6 knots; 3.1 m/s)
Visibility: 6 or more miles (10+ km)
Ceiling: 1300 feet AGL
Clouds: broken clouds at 1300 feet AGL
Weather: no significant weather observed at this time

METAR text: LELC 172100Z AUTO 04007KT 9999 OVC011/// 14/12 Q1023
Conditions at: LELC (SAN JAVIER(MIL/C, ES) observed 2100 UTC 17 February 2019
Temperature: 14.0°C (57°F)
Dewpoint: 12.0°C (54°F) [RH = 88%]
Pressure (altimeter): 30.21 inches Hg (1023.0 mb)
Winds: from the NE (40 degrees) at 8 MPH (7 knots; 3.6 m/s)
Visibility: 6 or more miles (10+ km)
Ceiling: 1100 feet AGL
Clouds: overcast cloud deck at 1100 feet AGL
Weather: no significant weather observed at this time

METAR text: LELC 172030Z AUTO 04006KT 010V070 8000 BKN011/// 13/12 Q1023
Conditions at: LELC (SAN JAVIER(MIL/C, ES) observed 2030 UTC 17 February 2019
Temperature: 13.0°C (55°F)
Dewpoint: 12.0°C (54°F) [RH = 94%]
Pressure (altimeter): 30.21 inches Hg (1023.0 mb)
Winds: from the NE (40 degrees) at 7 MPH (6 knots; 3.1 m/s)
Visibility: 5 miles ( 8 km)
Ceiling: 1100 feet AGL
Clouds: broken clouds at 1100 feet AGL
Weather: no significant weather observed at this time

METAR text: LELC 172000Z AUTO 04007KT 010V070 9000 BKN011/// BKN019/// 13/12 Q1023
Conditions at: LELC (SAN JAVIER(MIL/C, ES) observed 2000 UTC 17 February 2019
Temperature: 13.0°C (55°F)
Dewpoint: 12.0°C (54°F) [RH = 94%]
Pressure (altimeter): 30.21 inches Hg (1023.0 mb)
Winds: from the NE (40 degrees) at 8 MPH (7 knots; 3.6 m/s)
Visibility: 6 miles ( 9 km)
Ceiling: 1100 feet AGL
Clouds: broken clouds at 1100 feet AGL
broken clouds at 1900 feet AGL
Weather: no significant weather observed at this time

METAR text: LELC 171930Z AUTO 04007KT 9000 FEW020/// 13/11 Q1023
Conditions at: LELC (SAN JAVIER(MIL/C, ES) observed 1930 UTC 17 February 2019
Temperature: 13.0°C (55°F)
Dewpoint: 11.0°C (52°F) [RH = 88%]
Pressure (altimeter): 30.21 inches Hg (1023.0 mb)
Winds: from the NE (40 degrees) at 8 MPH (7 knots; 3.6 m/s)
Visibility: 6 miles ( 9 km)
Ceiling: at least 12,000 feet AGL
Clouds: few clouds at 2000 feet AGL
Weather: no significant weather observed at this time

METAR text: LELC 171900Z AUTO 05008KT 020V080 9000 FEW019/// 13/11 Q1023
Conditions at: LELC (SAN JAVIER(MIL/C, ES) observed 1900 UTC 17 February 2019
Temperature: 13.0°C (55°F)
Dewpoint: 11.0°C (52°F) [RH = 88%]
Pressure (altimeter): 30.21 inches Hg (1023.0 mb)
Winds: from the NE (50 degrees) at 9 MPH (8 knots; 4.1 m/s)
Visibility: 6 miles ( 9 km)
Ceiling: at least 12,000 feet AGL
Clouds: few clouds at 1900 feet AGL
Weather: no significant weather observed at this time

METAR text: LELC 171830Z AUTO 05008KT 9999 FEW013/// SCT019/// 13/11 Q1023
Conditions at: LELC (SAN JAVIER(MIL/C, ES) observed 1830 UTC 17 February 2019
Temperature: 13.0°C (55°F)
Dewpoint: 11.0°C (52°F) [RH = 88%]
Pressure (altimeter): 30.21 inches Hg (1023.0 mb)
Winds: from the NE (50 degrees) at 9 MPH (8 knots; 4.1 m/s)
Visibility: 6 or more miles (10+ km)
Ceiling: at least 12,000 feet AGL
Clouds: few clouds at 1300 feet AGL
scattered clouds at 1900 feet AGL
Weather: no significant weather observed at this time

METAR text: LELC 171800Z 04009KT 9999 FEW020 13/11 Q1023 NOSIG
Conditions at: LELC (SAN JAVIER(MIL/C, ES) observed 1800 UTC 17 February 2019
Temperature: 13.0°C (55°F)
Dewpoint: 11.0°C (52°F) [RH = 88%]
Pressure (altimeter): 30.21 inches Hg (1023.0 mb)
Winds: from the NE (40 degrees) at 10 MPH (9 knots; 4.6 m/s)
Visibility: 6 or more miles (10+ km)
Ceiling: at least 12,000 feet AGL
Clouds: few clouds at 2000 feet AGL
Weather: no significant weather observed at this time

METAR text: LELC 171730Z 05008KT 9999 FEW018 14/11 Q1023 NOSIG
Conditions at: LELC (SAN JAVIER(MIL/C, ES) observed 1730 UTC 17 February 2019
Temperature: 14.0°C (57°F)
Dewpoint: 11.0°C (52°F) [RH = 82%]
Pressure (altimeter): 30.21 inches Hg (1023.0 mb)
Winds: from the NE (50 degrees) at 9 MPH (8 knots; 4.1 m/s)
Visibility: 6 or more miles (10+ km)
Ceiling: at least 12,000 feet AGL
Clouds: few clouds at 1800 feet AGL
Weather: no significant weather observed at this time

METAR text: LELC 171700Z 05009KT 020V080 9999 FEW018 SCT030 14/11 Q1023 NOSIG
Conditions at: LELC (SAN JAVIER(MIL/C, ES) observed 1700 UTC 17 February 2019
Temperature: 14.0°C (57°F)
Dewpoint: 11.0°C (52°F) [RH = 82%]
Pressure (altimeter): 30.21 inches Hg (1023.0 mb)
Winds: from the NE (50 degrees) at 10 MPH (9 knots; 4.6 m/s)
Visibility: 6 or more miles (10+ km)
Ceiling: at least 12,000 feet AGL
Clouds: few clouds at 1800 feet AGL
scattered clouds at 3000 feet AGL
Weather: no significant weather observed at this time

METAR text: LELC 171630Z 06008KT 010V090 9999 FEW018 SCT030 15/11 Q1023 NOSIG
Conditions at: LELC (SAN JAVIER(MIL/C, ES) observed 1630 UTC 17 February 2019
Temperature: 15.0°C (59°F)
Dewpoint: 11.0°C (52°F) [RH = 77%]
Pressure (altimeter): 30.21 inches Hg (1023.0 mb)
Winds: from the ENE (60 degrees) at 9 MPH (8 knots; 4.1 m/s)
Visibility: 6 or more miles (10+ km)
Ceiling: at least 12,000 feet AGL
Clouds: few clouds at 1800 feet AGL
scattered clouds at 3000 feet AGL
Weather: no significant weather observed at this time

Forecast for: LELC (SAN JAVIER(MIL/C, ES)
Text: TAF LELC 182300Z 1900/1924 04012KT 9999 FEW010 BKN020 TX19/1914Z TN08/1907Z
Forecast period: 0000 UTC 19 February 2019 to 0000 UTC 20 February 2019
Forecast type: FROM: standard forecast or significant change
Winds: from the NE (40 degrees) at 14 MPH (12 knots; 6.2 m/s)
Visibility: 6 or more miles 10+ km)
Ceiling: 2000 feet AGL
Clouds: few clouds at 1000 feet AGL
broken clouds at 2000 feet AGL
Weather: no significant weather forecast for this period
Text: BECMG 1900/1902 34008KT
Forecast period: 0000 to 0800 UTC 19 February 2019
Forecast type: BECOMING: Conditions expected to become as follows by 0200 UTC 19 February 2019
Winds: from the NNW (340 degrees) at 9 MPH (8 knots; 4.1 m/s)
Visibility: 6 or more miles 10+ km)
Ceiling: 2000 feet AGL
Clouds: few clouds at 1000 feet AGL
broken clouds at 2000 feet AGL
Weather: no significant weather forecast for this period
Text: BECMG 1908/1910 05012KT
Forecast period: 0800 UTC 19 February 2019 to 0000 UTC 20 February 2019
Forecast type: BECOMING: Conditions expected to become as follows by 1000 UTC 19 February 2019
Winds: from the NE (50 degrees) at 14 MPH (12 knots; 6.2 m/s)
Visibility: 6 or more miles 10+ km)
Ceiling: 2000 feet AGL
Clouds: few clouds at 1000 feet AGL
broken clouds at 2000 feet AGL
Weather: no significant weather forecast for this period